Time;durP1;ratioP1;P1;durP2;ratioP2;P2;SDS_P1;SDS_P2;PMS_P1;PMS_P2;Temp;Humidity;BMP_temperature;BMP_pressure;BME280_temperature;BME280_humidity;BME280_pressure;Samples;Min_cycle;Max_cycle;Signal;HPM_P1;HPM_P2
2023/02/08 00:00:58;;;;;;;15.33;11.40;;;;;;;;;;5032193;28;20465;-72
2023/02/08 00:03:27;;;;;;;16.87;12.93;;;;;;;;;;5030440;28;20213;-72
2023/02/08 00:05:53;;;;;;;13.37;11.00;;;;;;;;;;5030512;28;20231;-72
2023/02/08 00:08:18;;;;;;;16.00;12.20;;;;;;;;;;5030351;28;20411;-72
2023/02/08 00:10:43;;;;;;;13.97;11.30;;;;;;;;;;5013672;28;20267;-72
2023/02/08 00:13:08;;;;;;;14.53;11.60;;;;;;;;;;5030821;28;20223;-72
2023/02/08 00:15:34;;;;;;;13.90;11.40;;;;;;;;;;5013581;28;20278;-72
2023/02/08 00:17:59;;;;;;;16.30;12.53;;;;;;;;;;5027328;28;20192;-72
2023/02/08 00:20:24;;;;;;;13.50;12.10;;;;;;;;;;5014899;28;20176;-71
2023/02/08 00:22:50;;;;;;;13.47;11.83;;;;;;;;;;5030791;28;20554;-72
2023/02/08 00:25:18;;;;;;;16.60;12.80;;;;;;;;;;5031845;28;20195;-72
2023/02/08 00:27:43;;;;;;;14.23;12.03;;;;;;;;;;5028382;28;20200;-72
2023/02/08 00:30:08;;;;;;;14.33;11.30;;;;;;;;;;5031939;28;20461;-72
2023/02/08 00:32:34;;;;;;;14.47;12.23;;;;;;;;;;5029323;28;20579;-72
2023/02/08 00:34:59;;;;;;;17.27;12.43;;;;;;;;;;5029615;28;20177;-72
2023/02/08 00:37:24;;;;;;;17.77;13.07;;;;;;;;;;5013057;28;20212;-72
2023/02/08 00:39:50;;;;;;;14.50;12.37;;;;;;;;;;5013572;28;20635;-72
2023/02/08 00:42:15;;;;;;;18.87;12.97;;;;;;;;;;5013732;28;20188;-72
2023/02/08 00:44:40;;;;;;;16.70;14.07;;;;;;;;;;5031222;28;20185;-72
2023/02/08 00:47:05;;;;;;;16.97;12.50;;;;;;;;;;5030927;28;20180;-72
2023/02/08 00:49:33;;;;;;;17.83;13.50;;;;;;;;;;5030489;28;20185;-72
2023/02/08 00:51:58;;;;;;;15.00;13.10;;;;;;;;;;5005970;28;20184;-72
2023/02/08 00:54:23;;;;;;;16.90;13.50;;;;;;;;;;5030391;28;20442;-72
2023/02/08 00:56:49;;;;;;;15.53;12.50;;;;;;;;;;5029549;28;20657;-72
2023/02/08 00:59:14;;;;;;;18.73;13.63;;;;;;;;;;5031200;28;20169;-72
2023/02/08 01:01:40;;;;;;;16.30;13.23;;;;;;;;;;5030261;28;20184;-72
2023/02/08 01:04:05;;;;;;;15.70;13.10;;;;;;;;;;5029613;28;20293;-72
2023/02/08 01:06:31;;;;;;;15.23;13.13;;;;;;;;;;5030583;28;20643;-72
2023/02/08 01:08:56;;;;;;;15.70;13.57;;;;;;;;;;5029779;28;20216;-72
2023/02/08 01:11:24;;;;;;;14.40;12.90;;;;;;;;;;5031292;28;20542;-71
2023/02/08 01:13:54;;;;;;;16.20;13.20;;;;;;;;;;5025411;28;20287;-72
2023/02/08 01:16:23;;;;;;;15.50;13.20;;;;;;;;;;5045341;28;20560;-72
2023/02/08 01:18:50;;;;;;;14.63;13.03;;;;;;;;;;5029565;28;20465;-72
2023/02/08 01:21:17;;;;;;;15.23;13.63;;;;;;;;;;5029288;28;20860;-72
2023/02/08 01:23:43;;;;;;;15.20;12.90;;;;;;;;;;5029999;28;20423;-72
2023/02/08 01:26:09;;;;;;;15.27;13.77;;;;;;;;;;5012469;28;20477;-72
2023/02/08 01:28:34;;;;;;;16.80;13.90;;;;;;;;;;5029542;28;20176;-72
2023/02/08 01:31:03;;;;;;;16.63;14.30;;;;;;;;;;5029375;28;20180;-72
2023/02/08 01:33:28;;;;;;;17.43;13.70;;;;;;;;;;5030731;28;20218;-72
2023/02/08 01:35:54;;;;;;;14.17;12.63;;;;;;;;;;5030116;28;20459;-72
2023/02/08 01:38:19;;;;;;;14.90;13.30;;;;;;;;;;5012488;28;20540;-72
2023/02/08 01:40:45;;;;;;;16.43;13.77;;;;;;;;;;5030065;28;20435;-72
2023/02/08 01:43:17;;;;;;;18.03;14.47;;;;;;;;;;5012838;28;20692;-72
2023/02/08 01:45:42;;;;;;;16.87;14.27;;;;;;;;;;5031779;28;20203;-72
2023/02/08 01:48:11;;;;;;;20.53;15.60;;;;;;;;;;5033864;28;20903;-72
2023/02/08 01:50:46;;;;;;;19.03;16.00;;;;;;;;;;5017873;28;20724;-72
2023/02/08 01:53:12;;;;;;;16.87;14.80;;;;;;;;;;5015708;28;20469;-72
2023/02/08 01:55:42;;;;;;;17.00;15.00;;;;;;;;;;5034041;28;20482;-72
2023/02/08 01:58:08;;;;;;;17.20;14.80;;;;;;;;;;5015351;28;20219;-72
2023/02/08 02:00:34;;;;;;;17.37;15.03;;;;;;;;;;5033341;28;20407;-72
2023/02/08 02:02:59;;;;;;;17.47;14.30;;;;;;;;;;5016459;28;20530;-72
2023/02/08 02:05:27;;;;;;;17.90;15.00;;;;;;;;;;5035086;28;20179;-71
2023/02/08 02:07:53;;;;;;;16.03;14.33;;;;;;;;;;5033720;28;20237;-72
2023/02/08 02:10:24;;;;;;;17.40;14.23;;;;;;;;;;5016582;28;20419;-71
2023/02/08 02:12:50;;;;;;;16.13;13.80;;;;;;;;;;5015036;28;21021;-71
2023/02/08 02:15:16;;;;;;;18.33;15.60;;;;;;;;;;5016337;28;20426;-70
2023/02/08 02:17:41;;;;;;;18.03;14.77;;;;;;;;;;5033564;28;20410;-70
2023/02/08 02:20:28;;;;;;;15.53;13.93;;;;;;;;;;5017650;28;20165;-70
2023/02/08 02:22:53;;;;;;;17.60;13.87;;;;;;;;;;5034043;28;20279;-70
2023/02/08 02:25:38;;;;;;;16.50;14.00;;;;;;;;;;5024215;28;20498;-70
2023/02/08 02:28:19;;;;;;;18.07;15.57;;;;;;;;;;5032184;28;20176;-70
2023/02/08 02:30:44;;;;;;;17.13;15.20;;;;;;;;;;5033023;28;20494;-70
2023/02/08 02:33:22;;;;;;;20.33;17.40;;;;;;;;;;5033518;28;20523;-70
2023/02/08 02:35:57;;;;;;;18.07;15.70;;;;;;;;;;5034805;28;20548;-70
2023/02/08 02:38:51;;;;;;;19.27;16.13;;;;;;;;;;5033130;28;20900;-70
2023/02/08 02:43:40;;;;;;;18.87;15.57;;;;;;;;;;5035086;28;20461;-70
2023/02/08 02:44:04;;;;;;;18.50;16.43;;;;;;;;;;5033460;28;20431;-70
2023/02/08 02:46:34;;;;;;;21.93;16.40;;;;;;;;;;5032982;28;20431;-70
2023/02/08 02:49:04;;;;;;;19.93;16.33;;;;;;;;;;5022791;28;20854;-70
2023/02/08 02:51:38;;;;;;;19.10;16.97;;;;;;;;;;5033166;28;20511;-70
2023/02/08 02:54:18;;;;;;;16.23;14.43;;;;;;;;;;5016085;28;20851;-70
2023/02/08 02:56:45;;;;;;;18.00;15.30;;;;;;;;;;5014764;28;20490;-70
2023/02/08 02:59:11;;;;;;;17.60;14.70;;;;;;;;;;5029918;28;20426;-70
2023/02/08 03:01:38;;;;;;;18.90;15.77;;;;;;;;;;5033842;28;20430;-70
2023/02/08 03:04:12;;;;;;;19.93;16.17;;;;;;;;;;5032252;28;20527;-70
2023/02/08 03:06:37;;;;;;;21.47;16.20;;;;;;;;;;5031948;28;20862;-70
2023/02/08 03:09:02;;;;;;;22.00;17.20;;;;;;;;;;5024209;28;20506;-70
2023/02/08 03:11:31;;;;;;;20.20;17.27;;;;;;;;;;5033592;28;20211;-70
2023/02/08 03:13:59;;;;;;;21.70;16.63;;;;;;;;;;5015685;28;20210;-70
2023/02/08 03:16:40;;;;;;;21.53;17.80;;;;;;;;;;5023448;28;20467;-70
2023/02/08 03:19:35;;;;;;;18.37;16.37;;;;;;;;;;5032355;28;20830;-70
2023/02/08 03:22:10;;;;;;;18.47;16.10;;;;;;;;;;5002043;28;20717;-70
2023/02/08 03:24:41;;;;;;;20.50;17.30;;;;;;;;;;5034158;28;20446;-70
2023/02/08 03:27:06;;;;;;;20.67;18.13;;;;;;;;;;5033471;28;20429;-70
2023/02/08 03:29:35;;;;;;;18.93;16.60;;;;;;;;;;5032889;28;20427;-70
2023/02/08 03:32:03;;;;;;;22.50;17.63;;;;;;;;;;5032373;28;20180;-70
2023/02/08 03:34:34;;;;;;;20.40;16.83;;;;;;;;;;5033432;28;20435;-70
2023/02/08 03:37:06;;;;;;;20.53;15.80;;;;;;;;;;5031716;28;20550;-70
2023/02/08 03:39:32;;;;;;;20.33;17.47;;;;;;;;;;5014776;28;20484;-70
2023/02/08 03:41:59;;;;;;;18.90;16.87;;;;;;;;;;5014792;28;20430;-70
2023/02/08 03:44:31;;;;;;;21.20;17.30;;;;;;;;;;5035452;28;20923;-70
2023/02/08 03:47:01;;;;;;;21.33;17.10;;;;;;;;;;5032444;28;20411;-70
2023/02/08 03:49:29;;;;;;;20.03;16.70;;;;;;;;;;5014577;28;20431;-70
2023/02/08 03:51:57;;;;;;;21.40;17.27;;;;;;;;;;5031850;28;20991;-70
2023/02/08 03:54:24;;;;;;;20.23;17.53;;;;;;;;;;5014926;28;20450;-70
2023/02/08 03:57:09;;;;;;;18.83;16.37;;;;;;;;;;5033481;28;20516;-70
2023/02/08 03:59:36;;;;;;;19.43;15.87;;;;;;;;;;5033815;28;20410;-70
2023/02/08 04:02:02;;;;;;;19.30;16.70;;;;;;;;;;5032659;28;20453;-70
2023/02/08 04:04:29;;;;;;;18.47;16.37;;;;;;;;;;5034657;28;20453;-70
2023/02/08 04:06:55;;;;;;;18.17;15.63;;;;;;;;;;5032097;28;20545;-70
2023/02/08 04:09:20;;;;;;;19.10;16.00;;;;;;;;;;5010326;28;20519;-70
2023/02/08 04:11:45;;;;;;;24.17;17.40;;;;;;;;;;5034335;28;20781;-70
2023/02/08 04:14:11;;;;;;;19.70;15.63;;;;;;;;;;5029203;28;20204;-70
2023/02/08 04:16:36;;;;;;;24.07;16.30;;;;;;;;;;5032230;28;20215;-70
2023/02/08 04:19:01;;;;;;;17.57;15.67;;;;;;;;;;5031734;28;20169;-70
2023/02/08 04:21:27;;;;;;;18.77;16.00;;;;;;;;;;5015023;28;20176;-70
2023/02/08 04:23:52;;;;;;;19.27;16.30;;;;;;;;;;5031160;28;20220;-70
2023/02/08 04:26:17;;;;;;;23.10;18.67;;;;;;;;;;5031565;28;20175;-70
2023/02/08 04:28:42;;;;;;;18.17;15.73;;;;;;;;;;5031594;28;20264;-70
2023/02/08 04:31:08;;;;;;;21.20;17.43;;;;;;;;;;5031785;28;20668;-70
2023/02/08 04:33:33;;;;;;;19.50;16.17;;;;;;;;;;5032560;28;20330;-70
2023/02/08 04:35:58;;;;;;;19.17;16.50;;;;;;;;;;5014167;28;20203;-70
2023/02/08 04:38:23;;;;;;;18.97;16.10;;;;;;;;;;5032138;28;20172;-70
2023/02/08 04:40:51;;;;;;;18.87;16.87;;;;;;;;;;5014109;28;20181;-70
2023/02/08 04:43:16;;;;;;;18.77;16.10;;;;;;;;;;5029539;28;20251;-70
2023/02/08 04:45:42;;;;;;;20.03;16.20;;;;;;;;;;5031331;28;20423;-70
2023/02/08 04:48:07;;;;;;;19.73;16.33;;;;;;;;;;5030325;28;20629;-70
2023/02/08 04:50:32;;;;;;;18.30;16.23;;;;;;;;;;5029379;28;20180;-70
2023/02/08 04:52:58;;;;;;;21.47;15.60;;;;;;;;;;5031186;28;20613;-70
2023/02/08 04:55:23;;;;;;;18.63;15.47;;;;;;;;;;5031512;28;20215;-70
2023/02/08 04:57:48;;;;;;;18.83;16.47;;;;;;;;;;5030643;28;20436;-70
2023/02/08 05:00:14;;;;;;;21.50;16.20;;;;;;;;;;5013487;28;20180;-70
2023/02/08 05:02:39;;;;;;;20.10;16.33;;;;;;;;;;5013473;28;20338;-70
2023/02/08 05:05:05;;;;;;;19.50;17.17;;;;;;;;;;5013322;28;20544;-70
2023/02/08 05:07:32;;;;;;;19.77;17.30;;;;;;;;;;5029689;28;20188;-70
2023/02/08 05:09:58;;;;;;;19.33;15.80;;;;;;;;;;5014290;28;20195;-70
2023/02/08 05:12:23;;;;;;;18.10;15.67;;;;;;;;;;5031439;28;20418;-71
2023/02/08 05:14:48;;;;;;;18.60;16.60;;;;;;;;;;5011432;28;20196;-70
2023/02/08 05:17:13;;;;;;;19.43;16.77;;;;;;;;;;5030851;28;20200;-70
2023/02/08 05:19:39;;;;;;;21.50;16.30;;;;;;;;;;5030155;28;20185;-70
2023/02/08 05:22:06;;;;;;;20.83;16.57;;;;;;;;;;5013427;28;20179;-70
2023/02/08 05:24:32;;;;;;;19.17;16.60;;;;;;;;;;5028637;28;20201;-70
2023/02/08 05:26:57;;;;;;;19.37;16.50;;;;;;;;;;5014049;28;20477;-70
2023/02/08 05:29:22;;;;;;;17.67;15.70;;;;;;;;;;5030169;28;20176;-70
2023/02/08 05:31:50;;;;;;;21.00;17.00;;;;;;;;;;5030878;28;20235;-71
2023/02/08 05:34:15;;;;;;;18.50;16.33;;;;;;;;;;5030487;28;20200;-71
2023/02/08 05:36:40;;;;;;;19.87;15.97;;;;;;;;;;5031131;28;20987;-70
2023/02/08 05:39:06;;;;;;;19.23;17.10;;;;;;;;;;5030799;28;20188;-70
2023/02/08 05:41:31;;;;;;;20.37;17.77;;;;;;;;;;5031136;28;20176;-70
2023/02/08 05:43:56;;;;;;;18.67;16.07;;;;;;;;;;5012473;28;20543;-70
2023/02/08 05:46:22;;;;;;;19.40;16.70;;;;;;;;;;5031295;28;20237;-70
2023/02/08 05:48:47;;;;;;;17.97;15.10;;;;;;;;;;5030240;28;20199;-70
2023/02/08 05:51:12;;;;;;;19.17;17.17;;;;;;;;;;5030306;28;20234;-70
2023/02/08 05:53:38;;;;;;;18.80;16.00;;;;;;;;;;5032469;28;20223;-71
2023/02/08 05:56:03;;;;;;;20.03;16.87;;;;;;;;;;5027966;28;20290;-71
2023/02/08 05:58:29;;;;;;;19.60;16.80;;;;;;;;;;5013798;28;20180;-70
2023/02/08 06:00:55;;;;;;;22.10;16.83;;;;;;;;;;5029712;28;20780;-71
2023/02/08 06:03:20;;;;;;;18.83;16.23;;;;;;;;;;5013395;28;20735;-71
2023/02/08 06:05:45;;;;;;;19.77;15.93;;;;;;;;;;5031206;28;20548;-70
2023/02/08 06:08:11;;;;;;;21.43;18.20;;;;;;;;;;5021748;28;20203;-71
2023/02/08 06:10:38;;;;;;;21.53;19.20;;;;;;;;;;5013890;28;20195;-71
2023/02/08 06:13:04;;;;;;;25.67;20.83;;;;;;;;;;5006009;28;20687;-70
2023/02/08 06:15:29;;;;;;;24.20;19.90;;;;;;;;;;5030420;28;20412;-71
2023/02/08 06:20:31;;;;;;;20.70;18.13;;;;;;;;;;5000682;28;20217;-72
2023/02/08 06:22:56;;;;;;;20.60;16.50;;;;;;;;;;5009817;28;20411;-72
2023/02/08 06:25:21;;;;;;;20.73;16.90;;;;;;;;;;5007670;28;20925;-72
2023/02/08 06:27:46;;;;;;;22.13;18.10;;;;;;;;;;5008414;28;20269;-72
2023/02/08 06:30:12;;;;;;;21.90;18.00;;;;;;;;;;5010747;28;20204;-72
2023/02/08 06:32:37;;;;;;;20.33;16.80;;;;;;;;;;5013553;28;20676;-72
2023/02/08 06:35:03;;;;;;;19.33;16.27;;;;;;;;;;4996355;28;20235;-72
2023/02/08 06:37:28;;;;;;;22.10;17.80;;;;;;;;;;5015028;28;20193;-72
2023/02/08 06:39:53;;;;;;;21.60;17.00;;;;;;;;;;5015116;28;20632;-72
2023/02/08 06:42:18;;;;;;;21.60;18.00;;;;;;;;;;5015314;28;20169;-72
2023/02/08 06:44:45;;;;;;;22.80;17.77;;;;;;;;;;5015623;28;20173;-72
2023/02/08 06:47:10;;;;;;;21.43;17.20;;;;;;;;;;5014907;28;20177;-72
2023/02/08 06:49:36;;;;;;;21.87;18.27;;;;;;;;;;5014314;28;20989;-72
2023/02/08 06:52:01;;;;;;;23.67;18.77;;;;;;;;;;5013357;28;20215;-72
2023/02/08 06:54:26;;;;;;;21.77;17.80;;;;;;;;;;5013243;28;20181;-72
2023/02/08 06:56:52;;;;;;;22.17;17.30;;;;;;;;;;5012800;28;20189;-72
2023/02/08 06:59:17;;;;;;;19.10;16.90;;;;;;;;;;5013947;28;20208;-72
2023/02/08 07:01:43;;;;;;;20.93;17.60;;;;;;;;;;5013823;28;20169;-72
2023/02/08 07:04:08;;;;;;;32.13;16.90;;;;;;;;;;5013984;28;20173;-72
2023/02/08 07:06:34;;;;;;;24.37;19.20;;;;;;;;;;5014269;28;20200;-72
2023/02/08 07:09:01;;;;;;;21.23;17.90;;;;;;;;;;5013471;28;20207;-72
2023/02/08 07:11:26;;;;;;;20.30;17.57;;;;;;;;;;4996411;28;20599;-72
2023/02/08 07:13:53;;;;;;;21.87;17.63;;;;;;;;;;4995656;28;20483;-72
2023/02/08 07:16:24;;;;;;;21.00;16.77;;;;;;;;;;5013453;28;20197;-72
2023/02/08 07:18:49;;;;;;;23.17;18.33;;;;;;;;;;5012838;28;20475;-71
2023/02/08 07:21:14;;;;;;;21.23;16.63;;;;;;;;;;5012945;28;20439;-71
2023/02/08 07:23:40;;;;;;;20.60;17.27;;;;;;;;;;5014227;28;20646;-71
2023/02/08 07:26:07;;;;;;;23.37;17.90;;;;;;;;;;5013588;28;20289;-72
2023/02/08 07:28:33;;;;;;;21.10;18.17;;;;;;;;;;5013831;28;20193;-71
2023/02/08 07:30:58;;;;;;;26.47;18.10;;;;;;;;;;5013685;28;20901;-71
2023/02/08 07:33:24;;;;;;;21.13;18.53;;;;;;;;;;5011377;28;20424;-72
2023/02/08 07:35:49;;;;;;;22.33;17.30;;;;;;;;;;5014728;28;20738;-72
2023/02/08 07:38:15;;;;;;;24.83;18.73;;;;;;;;;;4996937;28;20188;-72
2023/02/08 07:40:40;;;;;;;20.47;17.67;;;;;;;;;;5014565;28;20177;-72
2023/02/08 07:43:06;;;;;;;22.50;17.20;;;;;;;;;;5013835;28;20250;-72
2023/02/08 07:45:32;;;;;;;24.70;17.90;;;;;;;;;;5013838;28;20332;-72
2023/02/08 07:47:57;;;;;;;21.77;18.27;;;;;;;;;;5014004;28;20192;-72
2023/02/08 07:50:23;;;;;;;21.43;17.17;;;;;;;;;;5013138;28;20416;-72
2023/02/08 07:52:48;;;;;;;24.73;18.63;;;;;;;;;;5013324;28;20187;-72
2023/02/08 07:55:17;;;;;;;20.23;17.13;;;;;;;;;;5013621;28;20211;-71
2023/02/08 07:57:43;;;;;;;21.47;17.70;;;;;;;;;;5013524;28;20193;-72
2023/02/08 08:00:09;;;;;;;20.93;17.90;;;;;;;;;;5012864;28;20432;-71
2023/02/08 08:02:34;;;;;;;23.57;18.67;;;;;;;;;;5011669;28;20173;-72
2023/02/08 08:05:00;;;;;;;21.97;17.97;;;;;;;;;;5009576;28;20424;-72
2023/02/08 08:07:25;;;;;;;23.60;18.10;;;;;;;;;;5011611;28;20268;-71
2023/02/08 08:09:50;;;;;;;21.43;17.90;;;;;;;;;;5012263;28;20280;-71
2023/02/08 08:12:16;;;;;;;21.90;18.03;;;;;;;;;;5009200;28;20181;-71
2023/02/08 08:14:41;;;;;;;25.07;19.00;;;;;;;;;;5012196;28;20177;-71
2023/02/08 08:17:06;;;;;;;25.97;19.63;;;;;;;;;;5010601;28;20224;-71
2023/02/08 08:19:32;;;;;;;21.73;17.50;;;;;;;;;;5010931;28;20243;-71
2023/02/08 08:21:57;;;;;;;22.30;19.03;;;;;;;;;;5012117;28;20268;-71
2023/02/08 08:24:22;;;;;;;23.30;19.63;;;;;;;;;;5011945;28;20184;-71
2023/02/08 08:26:48;;;;;;;22.60;18.03;;;;;;;;;;5010749;28;20177;-71
2023/02/08 08:29:13;;;;;;;22.47;19.27;;;;;;;;;;5010615;28;20978;-71
2023/02/08 08:31:39;;;;;;;21.17;17.70;;;;;;;;;;5008979;28;20189;-71
2023/02/08 08:34:04;;;;;;;21.93;17.83;;;;;;;;;;5010342;28;20185;-71
2023/02/08 08:36:30;;;;;;;22.03;17.40;;;;;;;;;;5009695;28;20768;-71
2023/02/08 08:38:55;;;;;;;24.60;18.83;;;;;;;;;;5010791;28;20677;-72
2023/02/08 08:41:26;;;;;;;21.47;18.40;;;;;;;;;;5009894;28;20266;-71
2023/02/08 08:43:51;;;;;;;22.80;18.10;;;;;;;;;;5010346;28;20282;-71
2023/02/08 08:46:16;;;;;;;28.40;20.63;;;;;;;;;;5011086;28;20443;-71
2023/02/08 08:48:42;;;;;;;28.27;18.33;;;;;;;;;;5010249;28;20204;-71
2023/02/08 08:51:07;;;;;;;28.43;19.70;;;;;;;;;;4997170;28;20204;-71
2023/02/08 08:53:33;;;;;;;28.73;19.67;;;;;;;;;;5010610;28;20239;-71
2023/02/08 08:55:58;;;;;;;23.20;18.33;;;;;;;;;;5009220;28;20203;-72
2023/02/08 08:58:23;;;;;;;25.10;18.27;;;;;;;;;;5010511;28;20713;-71
2023/02/08 09:00:49;;;;;;;21.63;17.87;;;;;;;;;;5009727;28;20173;-71
2023/02/08 09:03:14;;;;;;;24.13;19.17;;;;;;;;;;5011239;28;20544;-71
2023/02/08 09:05:39;;;;;;;24.30;19.50;;;;;;;;;;5011022;28;20191;-71
2023/02/08 09:08:05;;;;;;;32.40;19.43;;;;;;;;;;5009661;28;20177;-71
2023/02/08 09:10:30;;;;;;;23.70;19.03;;;;;;;;;;5010492;28;20230;-71
2023/02/08 09:12:56;;;;;;;22.77;19.33;;;;;;;;;;4999060;28;20185;-71
2023/02/08 09:15:21;;;;;;;22.17;17.93;;;;;;;;;;5010180;28;20181;-72
2023/02/08 09:17:47;;;;;;;22.60;17.90;;;;;;;;;;5009352;28;20200;-71
2023/02/08 09:20:12;;;;;;;22.60;17.43;;;;;;;;;;5009323;28;20224;-71
2023/02/08 09:22:37;;;;;;;23.40;19.63;;;;;;;;;;5009952;28;20187;-71
2023/02/08 09:25:03;;;;;;;24.63;18.20;;;;;;;;;;5009817;28;20177;-71
2023/02/08 09:27:28;;;;;;;27.20;18.83;;;;;;;;;;5006728;28;20318;-71
2023/02/08 09:29:53;;;;;;;21.53;17.43;;;;;;;;;;5010135;28;20292;-71
2023/02/08 09:32:20;;;;;;;24.13;18.63;;;;;;;;;;5010269;28;20193;-71
2023/02/08 09:34:45;;;;;;;21.57;17.37;;;;;;;;;;5009347;28;20668;-71
2023/02/08 09:37:11;;;;;;;24.50;19.30;;;;;;;;;;5010023;28;20451;-71
2023/02/08 09:39:36;;;;;;;26.40;18.43;;;;;;;;;;5009487;28;20197;-71
2023/02/08 09:42:04;;;;;;;23.87;19.00;;;;;;;;;;5009786;28;20177;-71
2023/02/08 09:44:30;;;;;;;30.37;20.30;;;;;;;;;;5009935;28;20264;-71
2023/02/08 09:47:01;;;;;;;22.67;18.37;;;;;;;;;;5009621;28;20935;-71
2023/02/08 09:49:29;;;;;;;25.03;19.87;;;;;;;;;;5004687;28;20254;-71
2023/02/08 09:51:59;;;;;;;24.43;18.87;;;;;;;;;;5008886;28;20419;-71
2023/02/08 09:54:35;;;;;;;25.33;20.20;;;;;;;;;;5009858;28;20507;-71
2023/02/08 09:57:02;;;;;;;25.00;18.40;;;;;;;;;;5008796;28;20525;-71
2023/02/08 09:59:29;;;;;;;24.70;18.13;;;;;;;;;;5009334;28;20936;-71
2023/02/08 10:01:57;;;;;;;22.00;16.67;;;;;;;;;;5009815;28;20408;-71
2023/02/08 10:04:42;;;;;;;24.00;18.23;;;;;;;;;;5008065;28;20412;-72
2023/02/08 10:07:08;;;;;;;25.57;19.20;;;;;;;;;;5011229;28;20420;-69
2023/02/08 10:09:33;;;;;;;24.07;19.00;;;;;;;;;;5012695;28;20582;-71
2023/02/08 10:12:11;;;;;;;25.70;20.23;;;;;;;;;;5013677;28;20490;-71
2023/02/08 10:14:42;;;;;;;23.50;17.43;;;;;;;;;;5012395;28;20235;-72
2023/02/08 10:17:26;;;;;;;21.27;16.87;;;;;;;;;;5012736;28;20575;-71
2023/02/08 10:19:54;;;;;;;26.77;19.73;;;;;;;;;;4994363;28;20459;-71
2023/02/08 10:22:30;;;;;;;27.93;19.20;;;;;;;;;;5013134;28;20412;-70
2023/02/08 10:25:14;;;;;;;26.47;18.17;;;;;;;;;;5012462;28;20453;-71
2023/02/08 10:27:58;;;;;;;22.47;16.93;;;;;;;;;;5012238;28;20420;-72
2023/02/08 10:30:43;;;;;;;23.27;17.37;;;;;;;;;;5013166;28;20412;-71
2023/02/08 10:33:17;;;;;;;24.30;18.03;;;;;;;;;;5012742;28;20495;-72
2023/02/08 10:35:47;;;;;;;24.13;17.47;;;;;;;;;;5009755;28;20831;-71
2023/02/08 10:38:21;;;;;;;20.93;17.00;;;;;;;;;;5012610;28;20487;-71
2023/02/08 10:40:48;;;;;;;20.77;16.63;;;;;;;;;;5013033;28;20411;-70
2023/02/08 10:43:16;;;;;;;20.50;15.60;;;;;;;;;;5013522;28;20415;-70
2023/02/08 10:45:47;;;;;;;21.50;16.07;;;;;;;;;;5012949;28;20435;-69
2023/02/08 10:48:28;;;;;;;21.90;16.37;;;;;;;;;;5012443;28;20407;-70
2023/02/08 10:50:53;;;;;;;24.80;17.50;;;;;;;;;;5012791;28;20454;-69
2023/02/08 10:53:19;;;;;;;24.73;14.90;;;;;;;;;;5012599;28;20932;-69
2023/02/08 10:55:45;;;;;;;24.13;15.90;;;;;;;;;;5012705;28;20169;-70
2023/02/08 10:58:16;;;;;;;20.53;16.10;;;;;;;;;;5012343;28;20169;-70
2023/02/08 11:00:42;;;;;;;20.23;15.87;;;;;;;;;;5011144;28;20474;-70
2023/02/08 11:03:13;;;;;;;20.60;16.13;;;;;;;;;;5013132;28;20470;-70
2023/02/08 11:05:39;;;;;;;18.07;14.50;;;;;;;;;;5011849;28;20436;-70
2023/02/08 11:08:04;;;;;;;19.57;14.83;;;;;;;;;;4992685;28;20459;-70
2023/02/08 11:10:30;;;;;;;17.63;14.50;;;;;;;;;;5012752;28;20819;-70
2023/02/08 11:13:06;;;;;;;19.00;15.70;;;;;;;;;;4994877;28;20177;-70
2023/02/08 11:15:38;;;;;;;19.70;14.90;;;;;;;;;;5012418;28;20243;-70
2023/02/08 11:18:05;;;;;;;18.57;14.90;;;;;;;;;;5010264;28;20437;-70
2023/02/08 11:20:33;;;;;;;19.90;15.90;;;;;;;;;;5012236;28;20514;-70
2023/02/08 11:22:59;;;;;;;18.03;14.50;;;;;;;;;;5011772;28;20412;-70
2023/02/08 11:25:32;;;;;;;20.27;16.90;;;;;;;;;;5012213;28;20412;-70
2023/02/08 11:28:00;;;;;;;19.40;14.93;;;;;;;;;;5010952;28;20211;-70
2023/02/08 11:30:26;;;;;;;18.03;15.27;;;;;;;;;;5012123;28;20411;-70
2023/02/08 11:33:10;;;;;;;19.37;15.80;;;;;;;;;;5008220;28;20770;-70
2023/02/08 11:35:36;;;;;;;18.60;15.10;;;;;;;;;;5011934;28;20256;-70
2023/02/08 11:38:02;;;;;;;15.67;13.73;;;;;;;;;;5008583;28;20474;-70
2023/02/08 11:40:30;;;;;;;17.73;14.80;;;;;;;;;;5011532;28;20820;-70
2023/02/08 11:42:56;;;;;;;16.83;13.63;;;;;;;;;;5011932;28;20176;-70
2023/02/08 11:45:26;;;;;;;18.10;15.37;;;;;;;;;;5011835;28;20411;-70
2023/02/08 11:47:52;;;;;;;17.97;14.87;;;;;;;;;;5011196;28;20182;-70
2023/02/08 11:50:29;;;;;;;17.27;14.77;;;;;;;;;;5011846;28;20432;-70
2023/02/08 11:52:57;;;;;;;18.37;14.77;;;;;;;;;;5011573;28;20491;-70
2023/02/08 11:55:23;;;;;;;20.80;15.37;;;;;;;;;;5010818;28;20952;-70
2023/02/08 11:58:08;;;;;;;16.87;14.33;;;;;;;;;;5000731;28;20463;-70
2023/02/08 12:00:34;;;;;;;17.73;13.93;;;;;;;;;;5009312;28;20967;-71
2023/02/08 12:03:01;;;;;;;20.87;15.53;;;;;;;;;;5010427;28;20412;-70
2023/02/08 12:05:31;;;;;;;18.10;15.77;;;;;;;;;;5010738;28;20412;-70
2023/02/08 12:08:16;;;;;;;17.40;14.10;;;;;;;;;;5009873;28;20510;-71
2023/02/08 12:10:41;;;;;;;19.73;13.50;;;;;;;;;;5011072;28;20474;-71
2023/02/08 12:13:22;;;;;;;16.93;13.27;;;;;;;;;;5010920;28;20420;-70
2023/02/08 12:15:58;;;;;;;15.17;12.80;;;;;;;;;;5010485;28;20191;-70
2023/02/08 12:18:37;;;;;;;16.20;14.30;;;;;;;;;;4991467;28;20797;-70
2023/02/08 12:23:55;;;;;;;15.57;12.87;;;;;;;;;;5021695;28;20748;-72
2023/02/08 12:26:26;;;;;;;17.57;13.17;;;;;;;;;;5029481;28;20506;-73
2023/02/08 12:29:10;;;;;;;15.83;13.20;;;;;;;;;;5028422;28;20434;-73
2023/02/08 12:31:59;;;;;;;15.37;12.70;;;;;;;;;;5011110;28;20472;-75
2023/02/08 12:34:27;;;;;;;16.20;12.47;;;;;;;;;;5012560;28;20897;-73
2023/02/08 12:42:58;;;;;;;13.70;10.63;;;;;;;;;;5028939;28;20788;-73
2023/02/08 12:45:35;;;;;;;13.07;10.87;;;;;;;;;;5007220;28;20414;-73
2023/02/08 12:48:03;;;;;;;10.73;9.00;;;;;;;;;;5028446;28;20482;-73
2023/02/08 12:50:33;;;;;;;14.33;9.93;;;;;;;;;;5028026;28;20403;-73
2023/02/08 12:53:06;;;;;;;12.10;9.40;;;;;;;;;;5028611;28;20689;-73
2023/02/08 12:55:35;;;;;;;11.20;8.70;;;;;;;;;;5029149;28;20404;-73
2023/02/08 12:58:06;;;;;;;9.73;7.90;;;;;;;;;;5028255;28;20514;-73
2023/02/08 13:00:33;;;;;;;8.80;7.47;;;;;;;;;;5025707;28;20436;-73
2023/02/08 13:03:05;;;;;;;11.73;8.70;;;;;;;;;;5029140;28;20477;-73
2023/02/08 13:05:34;;;;;;;12.70;8.80;;;;;;;;;;5031515;28;21005;-74
2023/02/08 13:08:06;;;;;;;11.83;9.30;;;;;;;;;;5029571;28;20422;-73
2023/02/08 13:10:37;;;;;;;11.70;9.50;;;;;;;;;;5030500;28;20418;-73
2023/02/08 13:13:22;;;;;;;10.53;8.70;;;;;;;;;;5009201;28;20443;-73
2023/02/08 13:15:48;;;;;;;12.83;8.77;;;;;;;;;;5028937;28;20480;-73
2023/02/08 13:18:19;;;;;;;11.70;9.30;;;;;;;;;;5030128;28;20900;-75
2023/02/08 13:20:46;;;;;;;9.73;8.50;;;;;;;;;;5029808;28;20165;-73
2023/02/08 13:23:30;;;;;;;9.50;8.03;;;;;;;;;;5029087;28;20458;-73
2023/02/08 13:25:58;;;;;;;10.53;8.83;;;;;;;;;;5029882;28;20415;-72
2023/02/08 13:28:24;;;;;;;9.47;8.33;;;;;;;;;;5028093;28;20455;-73
2023/02/08 13:31:13;;;;;;;9.93;7.50;;;;;;;;;;5027311;28;20423;-73
2023/02/08 13:33:44;;;;;;;10.10;7.97;;;;;;;;;;5015995;28;20916;-73
2023/02/08 13:36:38;;;;;;;9.57;7.43;;;;;;;;;;5028817;28;20893;-73
2023/02/08 13:39:05;;;;;;;10.50;6.60;;;;;;;;;;5016098;28;20466;-73
2023/02/08 13:41:31;;;;;;;9.00;7.90;;;;;;;;;;5029056;28;20415;-73
2023/02/08 13:43:59;;;;;;;9.53;7.50;;;;;;;;;;5019104;28;20958;-73
2023/02/08 13:46:26;;;;;;;9.93;7.73;;;;;;;;;;5028889;28;20211;-73
2023/02/08 13:48:55;;;;;;;9.87;7.27;;;;;;;;;;5028909;28;20411;-73
2023/02/08 13:51:30;;;;;;;9.67;7.60;;;;;;;;;;5028543;28;20424;-73
2023/02/08 13:53:55;;;;;;;10.90;7.53;;;;;;;;;;5029517;28;20410;-73
2023/02/08 13:56:39;;;;;;;8.23;6.50;;;;;;;;;;5029322;28;20461;-73
2023/02/08 13:59:22;;;;;;;9.40;8.07;;;;;;;;;;5028530;28;20169;-73
2023/02/08 14:02:06;;;;;;;7.40;6.20;;;;;;;;;;5028639;28;20506;-73
2023/02/08 14:04:32;;;;;;;9.07;6.80;;;;;;;;;;5029297;28;20403;-74
2023/02/08 14:07:04;;;;;;;7.30;6.53;;;;;;;;;;5018735;28;20796;-73
2023/02/08 14:09:52;;;;;;;10.43;7.90;;;;;;;;;;5028317;28;20430;-73
2023/02/08 14:12:23;;;;;;;9.00;7.60;;;;;;;;;;5028617;28;20880;-73
2023/02/08 14:15:07;;;;;;;8.57;7.50;;;;;;;;;;5029345;28;20415;-73
2023/02/08 14:17:33;;;;;;;9.50;7.27;;;;;;;;;;5010789;28;20825;-73
2023/02/08 14:20:03;;;;;;;7.60;6.40;;;;;;;;;;5027643;28;20411;-73
2023/02/08 14:22:39;;;;;;;9.23;7.00;;;;;;;;;;5027673;28;20262;-73
2023/02/08 14:25:06;;;;;;;8.53;6.70;;;;;;;;;;5028931;28;20948;-73
2023/02/08 14:27:39;;;;;;;7.13;6.43;;;;;;;;;;5028469;28;20415;-73
2023/02/08 14:30:20;;;;;;;8.57;6.40;;;;;;;;;;5027899;28;20473;-73
2023/02/08 14:32:51;;;;;;;9.40;6.70;;;;;;;;;;5028923;28;20431;-73
2023/02/08 14:35:24;;;;;;;7.00;6.30;;;;;;;;;;5028980;28;20407;-73
2023/02/08 14:38:09;;;;;;;7.60;6.53;;;;;;;;;;5028538;28;20462;-73